Nearby METAR Reports

 

KI68 - Lebanon, Ohio, USA
Distance from station: SW 1mi, 3km
Updated: Fri, 28-Jan-2022 7:35pm EST
Light snow, Mostly cloudy
Light snow, Mostly cloudy
 Wind from NNW
Wind: NNW 9 mph , 15 km/h
Temperature: 18°F , -8°C
Wind Chill: 7°F , -14°C
Dew Point: 14°F , -10°C
Humidity: 86%
Barometer: 30.21 inHg , 1023 hPa
Summary: Light Snow
Clouds: Mostly cloudy
Visibility: 5 miles , 8 km
Cloud details: Mostly cloudy 800 ft
2022/01/29 00:35 KI68 290035Z AUTO 34008KT 5SM -SN BKN008 M08/M10 A3021 RMK AO1 T10811105
KLEX - Lexington, Kentucky, USA
Distance from station: SE 25mi, 38km
Updated: Fri, 28-Jan-2022 7:10pm EST
Light snow, Mist, Overcast
Light snow, Mist, Overcast
 Wind from N
Wind: N 15 mph , 24 km/h, Gust: 28 mph , 44 km/h
Temperature: 25°F , -4°C
Wind Chill: 13°F , -11°C
Dew Point: 21°F , -6°C
Humidity: 86%
Barometer: 30.11 inHg , 1019.6 hPa
Summary: Light snow, Mist
Clouds: Overcast
Visibility: 3/4 mile , 1.2 km
Cloud details: Few Clouds 500 ft
Mostly cloudy 1000 ft
Overcast 1800 ft
2022/01/29 00:10 KLEX 290010Z 36013G24KT 3/4SM R04/4500V6000FT -SN BR FEW005 BKN010 OVC018 M04/M06 A3011 RMK AO2 P0001 T10441056 $
 
KFFT - Frankfort, Kentucky, USA
Distance from station: WNW 24mi, 38km
Updated: Fri, 28-Jan-2022 7:33pm EST
Light snow, Mist, Overcast
Light snow, Mist, Overcast
 Wind from N
Wind: N 14 mph , 22 km/h, Gust: 23 mph , 37 km/h
Temperature: 23°F , -5°C
Wind Chill: 11°F , -12°C
Dew Point: 19°F , -7°C
Humidity: 86%
Barometer: 30.16 inHg , 1021.3 hPa
Summary: Light snow, Mist
Clouds: Overcast
Visibility: 1 3/4 miles , 2.8 km
Cloud details: Few Clouds 1000 ft
Overcast 3000 ft
2022/01/29 00:33 KFFT 290033Z AUTO 35012G20KT 1 3/4SM -SN BR FEW010 OVC030 M05/M07 A3016 RMK AO2 P0000 T10501072
KIOB - Mount Sterling, Kentucky, USA
Distance from station: E 28mi, 46km
Updated: Fri, 28-Jan-2022 7:35pm EST
Light snow, Overcast
Light snow, Overcast
 Wind from N
Wind: N 14 mph , 22 km/h, Gust: 17 mph , 28 km/h
Temperature: 27°F , -3°C
Wind Chill: 16°F , -9°C
Dew Point: 23°F , -5°C
Humidity: 86%
Barometer: 30.12 inHg , 1020 hPa
Summary: Light Snow
Clouds: Overcast
Visibility: 3 miles , 5 km
Cloud details: Overcast 800 ft
2022/01/29 00:35 KIOB 290035Z AUTO 01012G15KT 3SM -SN OVC008 M03/M05 A3012 RMK AO2
 
KDVK - Danville, Kentucky, USA
Distance from station: SSW 35mi, 56km
Updated: Fri, 28-Jan-2022 7:35pm EST
Light snow, Overcast
Light snow, Overcast
 Wind from calm
Wind: Calm
Temperature: 28°F , -2°C
Dew Point: 27°F , -3°C
Humidity: 93%
Barometer: 30.11 inHg , 1019.6 hPa
Summary: Light Snow
Clouds: Overcast
Visibility: 4 miles , 6 km
Cloud details: Mostly cloudy 700 ft
Mostly cloudy 1300 ft
Overcast 1900 ft
2022/01/29 00:35 KDVK 290035Z AUTO 00000KT 4SM -SN BKN007 BKN013 OVC019 M02/M03 A3011 RMK AO2
K6I2 - Springfield, Kentucky, USA
Distance from station: SW 49mi, 80km
Updated: Fri, 28-Jan-2022 7:35pm EST
Light snow, Overcast
Light snow, Overcast
 Wind from NNW
Wind: NNW 20 mph , 31 km/h, Gust: 24 mph , 39 km/h
Temperature: 25°F , -4°C
Wind Chill: 11°F , -12°C
Dew Point: 25°F , -4°C
Humidity: 100%
Barometer: 30.15 inHg , 1021 hPa
Summary: Light Snow
Clouds: Overcast
Visibility: 1 mile , 2 km
Cloud details: Overcast 100 ft
2022/01/29 00:35 K6I2 290035Z AUTO 34017G21KT 1SM -SN OVC001 M04/M04 A3015 RMK AO2
 
KSYM - Morehead, Kentucky, USA
Distance from station: ENE 51mi, 83km
Updated: Fri, 28-Jan-2022 7:35pm EST
Light snow, Overcast
Light snow, Overcast
 Wind from NNW
Wind: NNW 6 mph , 9 km/h
Temperature: 27°F , -3°C
Wind Chill: 20°F , -7°C
Dew Point: 23°F , -5°C
Humidity: 86%
Barometer: 30.11 inHg , 1019.6 hPa
Summary: Light Snow
Clouds: Overcast
Visibility: 3 miles , 5 km
Cloud details: Overcast 900 ft
2022/01/29 00:35 KSYM 290035Z AUTO 33005KT 3SM -SN OVC009 M03/M05 A3011 RMK AO2
KFGX - Flemingsburg, Kentucky, USA
Distance from station: NE 54mi, 87km
Updated: Fri, 28-Jan-2022 7:35pm EST
Light snow, Overcast
Light snow, Overcast
 Wind from NNE
Wind: NNE 14 mph , 22 km/h, Gust: 20 mph , 31 km/h
Temperature: 19°F , -7°C
Wind Chill: 5°F , -15°C
Dew Point: 18°F , -8°C
Humidity: 93%
Barometer: 30.16 inHg , 1021.3 hPa
Summary: Light Snow
Clouds: Overcast
Visibility: 2 1/2 miles , 4 km
Cloud details: Partly cloudy 1500 ft
Overcast 3600 ft
2022/01/29 00:35 KFGX 290035Z AUTO 02012G17KT 2 1/2SM -SN SCT015 OVC036 M07/M08 A3016 RMK AO2 T10661085
 
KLOU - Louisville/Bowmn, Kentucky, USA
Distance from station: W 64mi, 104km
Updated: Fri, 28-Jan-2022 7:19pm EST
Light snow, Mist, Overcast
Light snow, Mist, Overcast
 Wind from NNW
Wind: NNW 10 mph , 17 km/h, Gust: 22 mph , 35 km/h
Temperature: 23°F , -5°C
Wind Chill: 13°F , -11°C
Dew Point: 19°F , -7°C
Humidity: 86%
Barometer: 30.22 inHg , 1023.4 hPa
Summary: Light snow, Mist
Clouds: Overcast
Visibility: 4 miles , 6 km
Cloud details: Mostly cloudy 800 ft
Mostly cloudy 1300 ft
Overcast 2800 ft
2022/01/29 00:19 KLOU 290019Z 33009G19KT 4SM -SN BR BKN008 BKN013 OVC028 M05/M07 A3022 RMK AO2 P0000 T10501072
KSDF - Louisville, Kentucky, USA
Distance from station: W 68mi, 109km
Updated: Fri, 28-Jan-2022 7:07pm EST
Light snow, Overcast
Light snow, Overcast
 Wind from N
Wind: N 20 mph , 31 km/h, Gust: 28 mph , 44 km/h
Temperature: 23°F , -5°C
Wind Chill: 8°F , -13°C
Dew Point: 19°F , -7°C
Humidity: 86%
Barometer: 30.21 inHg , 1023 hPa
Summary: Light Snow
Clouds: Overcast
Visibility: 3 miles , 5 km
Cloud details: Few Clouds 1200 ft
Partly cloudy 1700 ft
Overcast 3000 ft
2022/01/29 00:07 KSDF 290007Z 35017G24KT 3SM -SN FEW012 SCT017 OVC030 M05/M07 A3021 RMK AO2 P0001 T10501072
 
KSME - Somerset, Kentucky, USA
Distance from station: S 69mi, 111km
Updated: Fri, 28-Jan-2022 7:35pm EST
Light snow, Mist, Mostly cloudy
Light snow, Mist, Mostly cloudy
 Wind from NW
Wind: NW 6 mph , 9 km/h
Temperature: 28°F , -2°C
Wind Chill: 21°F , -6°C
Dew Point: 27°F , -3°C
Humidity: 93%
Barometer: 30.09 inHg , 1019 hPa
Summary: Light snow, Mist
Clouds: Mostly cloudy
Visibility: 3 miles , 5 km
Cloud details: Few Clouds 700 ft
Partly cloudy 1500 ft
Mostly cloudy 2500 ft
2022/01/29 00:35 KSME 290035Z AUTO 32005KT 3SM -SN BR FEW007 SCT015 BKN025 M02/M03 A3009 RMK AO2
KCVG - Covington, Kentucky, USA
Distance from station: N 70mi, 113km
Updated: Fri, 28-Jan-2022 7:17pm EST
Light snow, Blowing, Snow, Overcast
Light snow, Blowing, Snow, Overcast
 Wind from N
Wind: N 17 mph , 28 km/h
Temperature: 18°F , -8°C
Wind Chill: 3°F , -16°C
Dew Point: 10°F , -12°C
Humidity: 73%
Barometer: 30.19 inHg , 1022.4 hPa
Summary: Light snow, Blowing, Snow
Clouds: Overcast
Visibility: 7 miles , 11 km
Cloud details: Partly cloudy 1300 ft
Partly cloudy 2800 ft
Overcast 4800 ft
2022/01/29 00:17 KCVG 290017Z 35015KT 7SM -SN BLSN SCT013 SCT028 OVC048 M08/M12 A3019 RMK AO2 P0000 T10831117 $
 
KLOZ - London, Kentucky, USA
Distance from station: SSE 70mi, 113km
Updated: Fri, 28-Jan-2022 7:21pm EST
Light snow, Mist, Overcast
Light snow, Mist, Overcast
 Wind from NW
Wind: NW 6 mph , 9 km/h
Temperature: 28°F , -2°C
Wind Chill: 21°F , -6°C
Dew Point: 27°F , -3°C
Humidity: 93%
Barometer: 30.06 inHg , 1017.9 hPa
Summary: Light snow, Mist
Clouds: Overcast
Visibility: 4 miles , 6 km
Cloud details: Partly cloudy 1500 ft
Mostly cloudy 3600 ft
Overcast 11000 ft
2022/01/29 00:21 KLOZ 290021Z AUTO 32005KT 4SM -SN BR SCT015 BKN036 OVC110 M02/M03 A3006 RMK AO2 SNB04 P0000 T10171033
KJKL - Noctor/Jackson, Kentucky, USA
Distance from station: ESE 72mi, 115km
Updated: Fri, 28-Jan-2022 7:22pm EST
Light snow, Mist, Overcast
Light snow, Mist, Overcast
 Wind from varies
Wind: varies 3 mph , 6 km/h
Temperature: 28°F , -2°C
Dew Point: 25°F , -4°C
Humidity: 86%
Barometer: 30.04 inHg , 1017.3 hPa
Summary: Light snow, Mist
Clouds: Overcast
Visibility: 3/4 mile , 1.2 km
Cloud details: Overcast 400 ft
2022/01/29 00:22 KJKL 290022Z AUTO VRB03KT 3/4SM -SN BR OVC004 M02/M04 A3004 RMK AO2 CIG 003V009 P0001 T10221039
 
KIMS - Madison, Indiana, USA
Distance from station: NW 72mi, 116km
Updated: Wed, 26-Jan-2022 7:15am EST
NOT Current
Clear
Clear
 Wind from calm
Wind: Calm
Temperature: 7°F , -14°C
Dew Point: 1°F , -17°C
Humidity: 78%
Barometer: 30.49 inHg , 1032.5 hPa
Clouds: Clear
Visibility: 10 miles , 16 km
2022/01/26 12:15 KIMS 261215Z AUTO 00000KT 10SM CLR M14/M17 A3049 RMK AO2
KLUK - Cincinnat/Lunken, Ohio, USA
Distance from station: N 73mi, 118km
Updated: Fri, 28-Jan-2022 6:53pm EST
Light snow, Mist, Overcast
Light snow, Mist, Overcast
 Wind from N
Wind: N 12 mph , 19 km/h
Temperature: 19°F , -7°C
Wind Chill: 6°F , -14°C
Dew Point: 16°F , -9°C
Humidity: 86%
Barometer: 30.23 inHg , 1023.7 hPa
Summary: Light snow, Mist
Clouds: Overcast
Visibility: 2 1/2 miles , 4 km
Cloud details: Few Clouds 1400 ft
Overcast 4200 ft
2022/01/28 23:53 KLUK 282353Z 36010KT 2 1/2SM -SN BR FEW014 OVC042 M07/M09 A3023 RMK AO2 SLP242 P0000 60000 T10721094 11006 21072 51019
 
KI69 - Batavia, Ohio, USA
Distance from station: NNE 74mi, 119km
Updated: Fri, 28-Jan-2022 7:35pm EST
Overcast
Overcast
 Wind from N
Wind: N 9 mph , 15 km/h
Temperature: 18°F , -8°C
Wind Chill: 7°F , -14°C
Dew Point: 14°F , -10°C
Humidity: 86%
Barometer: 30.20 inHg , 1022.7 hPa
Clouds: Overcast
Visibility: 7 miles , 11 km
Cloud details: Partly cloudy 4300 ft
Overcast 4800 ft
2022/01/29 00:35 KI69 290035Z AUTO 36008KT 7SM SCT043 OVC048 M08/M10 A3020 RMK AO2 T10801100